createdAt,value
2022-10-18T00:01:05.671Z,5.93
2022-10-18T00:03:34.077Z,7.22
2022-10-18T00:06:02.880Z,3.85
2022-10-18T00:08:30.499Z,5.43
2022-10-18T00:10:58.026Z,6.55
2022-10-18T00:13:25.631Z,3.42
2022-10-18T00:15:57.285Z,4.20
2022-10-18T00:18:24.936Z,4.80
2022-10-18T00:21:07.273Z,3.53
2022-10-18T00:23:36.491Z,5.82
2022-10-18T00:26:12.583Z,5.68
2022-10-18T00:28:41.603Z,4.82
2022-10-18T00:31:16.997Z,3.28
2022-10-18T00:33:48.317Z,3.38
2022-10-18T00:36:15.960Z,3.10
2022-10-18T00:38:44.328Z,2.80
2022-10-18T00:41:18.119Z,5.57
2022-10-18T00:44:12.079Z,5.65
2022-10-18T00:46:48.203Z,4.05
2022-10-18T00:49:29.190Z,3.90
2022-10-18T00:52:23.986Z,5.20
2022-10-18T00:54:52.783Z,3.47
2022-10-18T00:57:20.252Z,4.32
2022-10-18T00:59:48.527Z,3.95
2022-10-18T01:02:18.417Z,2.78
2022-10-18T01:04:47.526Z,2.85
2022-10-18T01:07:26.642Z,4.25
2022-10-18T01:10:28.275Z,3.58
2022-10-18T01:13:29.299Z,2.45
2022-10-18T01:16:23.963Z,2.75
2022-10-18T01:19:17.834Z,3.00
2022-10-18T01:21:54.593Z,2.97
2022-10-18T01:24:47.543Z,3.30
2022-10-18T01:27:47.082Z,2.83
2022-10-18T01:30:56.558Z,4.80
2022-10-18T01:33:42.224Z,2.35
2022-10-18T01:36:41.075Z,3.38
2022-10-18T01:39:22.189Z,3.85
2022-10-18T01:41:52.291Z,2.92
2022-10-18T01:44:25.708Z,3.03
2022-10-18T01:46:55.766Z,3.28
2022-10-18T01:49:27.019Z,2.67
2022-10-18T01:51:57.326Z,2.63
2022-10-18T01:54:38.202Z,4.60
2022-10-18T01:57:24.875Z,2.85
2022-10-18T02:00:42.939Z,3.83
2022-10-18T02:03:23.145Z,2.03
2022-10-18T02:06:32.719Z,2.88
2022-10-18T02:09:42.286Z,5.13
2022-10-18T02:12:13.033Z,3.00
2022-10-18T02:14:43.546Z,7.20
2022-10-18T02:17:13.386Z,4.93
2022-10-18T02:19:54.628Z,3.03
2022-10-18T02:22:27.085Z,3.28
2022-10-18T02:24:58.124Z,3.05
2022-10-18T02:27:25.775Z,2.92
2022-10-18T02:29:54.180Z,3.22
2022-10-18T02:32:41.638Z,3.60
2022-10-18T02:35:26.650Z,4.88
2022-10-18T02:37:55.566Z,2.95
2022-10-18T02:40:23.930Z,2.97
2022-10-18T02:42:56.280Z,3.10
2022-10-18T02:45:25.475Z,2.55
2022-10-18T02:47:53.799Z,2.63
2022-10-18T02:50:21.397Z,2.67
2022-10-18T02:52:48.822Z,3.47
2022-10-18T02:55:16.738Z,3.92
2022-10-18T02:57:44.533Z,2.50
2022-10-18T03:00:13.012Z,3.67
2022-10-18T03:02:40.538Z,2.58
2022-10-18T03:05:08.497Z,3.30
2022-10-18T03:07:35.911Z,3.60
2022-10-18T03:10:03.818Z,1.98
2022-10-18T03:12:31.464Z,2.45
2022-10-18T03:14:59.188Z,3.00
2022-10-18T03:17:26.710Z,2.95
2022-10-18T03:19:54.148Z,2.92
2022-10-18T03:22:21.758Z,4.25
2022-10-18T03:24:49.213Z,3.45
2022-10-18T03:27:16.750Z,3.80
2022-10-18T03:29:44.254Z,3.75
2022-10-18T03:32:11.942Z,4.05
2022-10-18T03:34:39.435Z,4.45
2022-10-18T03:37:07.585Z,2.38
2022-10-18T03:39:35.063Z,3.47
2022-10-18T03:42:02.623Z,2.20
2022-10-18T03:44:30.127Z,3.75
2022-10-18T03:46:57.716Z,2.28
2022-10-18T03:49:25.342Z,2.40
2022-10-18T03:51:52.756Z,3.25
2022-10-18T03:54:20.197Z,2.08
2022-10-18T03:56:47.452Z,3.53
2022-10-18T03:59:17.211Z,3.55
2022-10-18T04:01:44.894Z,3.22
2022-10-18T04:04:12.424Z,3.35
2022-10-18T04:06:39.917Z,2.38
2022-10-18T04:09:10.202Z,2.35
2022-10-18T04:11:37.838Z,3.15
2022-10-18T04:14:05.303Z,3.47
2022-10-18T04:16:32.866Z,3.10
2022-10-18T04:19:00.400Z,2.75
2022-10-18T04:21:27.910Z,2.13
2022-10-18T04:23:55.403Z,2.33
2022-10-18T04:26:23.056Z,2.85
2022-10-18T04:28:50.661Z,3.08
2022-10-18T04:31:18.194Z,3.53
2022-10-18T04:33:45.645Z,2.25
2022-10-18T04:36:13.423Z,1.98
2022-10-18T04:38:41.054Z,4.53
2022-10-18T04:41:08.613Z,3.45
2022-10-18T04:43:36.172Z,4.47
2022-10-18T04:46:03.835Z,3.30
2022-10-18T04:48:31.423Z,2.88
2022-10-18T04:50:58.977Z,2.28
2022-10-18T04:53:26.294Z,2.75
2022-10-18T04:55:53.548Z,3.17
2022-10-18T04:58:20.964Z,3.33
2022-10-18T05:00:48.585Z,2.45
2022-10-18T05:03:16.852Z,2.25
2022-10-18T05:06:03.267Z,2.40
2022-10-18T05:08:35.683Z,4.60
2022-10-18T05:11:04.411Z,3.58
2022-10-18T05:13:32.117Z,3.22
2022-10-18T05:16:00.459Z,6.22
2022-10-18T05:18:28.067Z,5.45
2022-10-18T05:20:55.482Z,3.10
2022-10-18T05:23:23.284Z,2.47
2022-10-18T05:25:51.322Z,2.83
2022-10-18T05:28:38.629Z,3.15
2022-10-18T05:31:08.920Z,4.18
2022-10-18T05:33:36.683Z,5.18
2022-10-18T05:36:04.903Z,3.92
2022-10-18T05:38:32.656Z,3.78
2022-10-18T05:41:04.697Z,3.70
2022-10-18T05:43:32.160Z,3.80
2022-10-18T05:45:59.604Z,9.00
2022-10-18T05:48:27.214Z,7.25
2022-10-18T05:50:54.640Z,11.77
2022-10-18T05:53:36.381Z,8.85
2022-10-18T05:56:05.728Z,7.03
2022-10-18T05:58:33.514Z,9.73
2022-10-18T06:01:03.424Z,8.82
2022-10-18T06:03:31.260Z,8.63
2022-10-18T06:06:09.776Z,9.50
2022-10-18T06:08:38.332Z,10.93
2022-10-18T06:11:13.698Z,8.05
2022-10-18T06:13:47.710Z,11.15
2022-10-18T06:16:18.633Z,7.50
2022-10-18T06:18:51.074Z,8.70
2022-10-18T06:21:19.457Z,13.98
2022-10-18T06:23:57.476Z,11.13
2022-10-18T06:26:27.204Z,9.90
2022-10-18T06:28:54.811Z,11.38
2022-10-18T06:31:22.311Z,8.85
2022-10-18T06:33:50.137Z,9.18
2022-10-18T06:36:24.744Z,9.10
2022-10-18T06:38:52.258Z,13.70
2022-10-18T06:41:20.636Z,8.55
2022-10-18T06:43:53.674Z,10.07
2022-10-18T06:46:21.141Z,10.98
2022-10-18T06:48:48.760Z,5.85
2022-10-18T06:51:16.344Z,9.60
2022-10-18T06:53:59.323Z,6.85
2022-10-18T06:56:36.033Z,9.15
2022-10-18T06:59:03.782Z,12.68
2022-10-18T07:01:31.531Z,8.27
2022-10-18T07:03:59.036Z,5.57
2022-10-18T07:06:26.617Z,6.07
2022-10-18T07:08:54.467Z,9.73
2022-10-18T07:11:25.496Z,9.05
2022-10-18T07:14:04.973Z,10.48
2022-10-18T07:16:34.341Z,8.07
2022-10-18T07:19:01.989Z,4.53
2022-10-18T07:21:29.543Z,6.18
2022-10-18T07:23:57.308Z,6.80
2022-10-18T07:26:31.549Z,6.60
2022-10-18T07:29:08.211Z,5.85
2022-10-18T07:31:36.977Z,7.07
2022-10-18T07:34:06.239Z,6.32
2022-10-18T07:36:34.417Z,8.73
2022-10-18T07:39:01.817Z,7.57
2022-10-18T07:41:30.213Z,5.90
2022-10-18T07:43:57.653Z,9.82
2022-10-18T07:46:25.332Z,8.40
2022-10-18T07:48:52.971Z,10.55
2022-10-18T07:51:21.785Z,7.20
2022-10-18T07:53:49.548Z,8.85
2022-10-18T07:56:21.810Z,12.52
2022-10-18T07:58:54.721Z,9.00
2022-10-18T08:01:24.063Z,6.47
2022-10-18T08:03:52.649Z,8.43
2022-10-18T08:06:21.855Z,9.02
2022-10-18T08:08:49.589Z,11.55
2022-10-18T08:11:21.746Z,7.72
2022-10-18T08:13:49.734Z,12.18
2022-10-18T08:16:21.896Z,7.60
2022-10-18T08:18:49.811Z,12.23
2022-10-18T08:21:19.797Z,6.80
2022-10-18T08:23:48.132Z,7.45
2022-10-18T08:26:18.785Z,9.40
2022-10-18T08:28:53.967Z,7.25
2022-10-18T08:31:26.651Z,5.45
2022-10-18T08:33:57.285Z,8.32
2022-10-18T08:36:25.264Z,8.90
2022-10-18T08:38:52.854Z,7.25
2022-10-18T08:41:42.649Z,19.42
2022-10-18T08:44:25.473Z,20.90
2022-10-18T08:46:59.206Z,18.13
2022-10-18T08:49:51.171Z,18.38
2022-10-18T08:52:36.303Z,14.50
2022-10-18T08:55:11.453Z,29.45
2022-10-18T08:57:38.798Z,28.75
2022-10-18T09:00:18.774Z,17.83
2022-10-18T09:03:04.889Z,8.00
2022-10-18T09:06:30.116Z,10.50
2022-10-18T09:09:34.391Z,11.32
2022-10-18T09:12:25.634Z,10.70
2022-10-18T09:15:52.029Z,9.63
2022-10-18T09:18:48.614Z,11.40
2022-10-18T09:21:40.406Z,5.35
2022-10-18T09:24:26.262Z,7.75
2022-10-18T09:27:12.573Z,8.45
2022-10-18T09:29:58.609Z,6.18
2022-10-18T09:33:04.479Z,9.80
2022-10-18T09:35:44.148Z,4.82
2022-10-18T09:38:16.937Z,12.80
2022-10-18T09:41:21.734Z,5.28
2022-10-18T09:43:59.148Z,9.05
2022-10-18T09:46:33.000Z,7.03
2022-10-18T09:49:23.666Z,8.15
2022-10-18T09:51:53.961Z,10.82
2022-10-18T09:54:32.633Z,8.50
2022-10-18T09:57:10.563Z,15.02
2022-10-18T09:59:42.977Z,8.35
2022-10-18T10:02:19.001Z,9.05
2022-10-18T10:04:46.737Z,8.50
2022-10-18T10:07:42.919Z,7.45
2022-10-18T10:10:26.253Z,6.05
2022-10-18T10:13:23.087Z,3.38
2022-10-18T10:16:01.165Z,10.95
2022-10-18T10:18:35.161Z,7.35
2022-10-18T10:21:13.878Z,9.73
2022-10-18T10:23:57.658Z,5.55
2022-10-18T10:26:28.967Z,5.43
2022-10-18T10:28:56.541Z,12.50
2022-10-18T10:31:32.165Z,11.45
2022-10-18T10:34:06.116Z,7.95
2022-10-18T10:36:35.270Z,4.25
2022-10-18T10:39:11.481Z,9.30
2022-10-18T10:41:41.150Z,7.40
2022-10-18T10:44:20.079Z,13.55
2022-10-18T10:46:50.825Z,5.35
2022-10-18T10:49:50.699Z,9.02
2022-10-18T10:52:27.248Z,4.40
2022-10-18T10:57:50.394Z,5.07
2022-10-18T11:00:44.479Z,5.40
2022-10-18T11:03:34.545Z,6.65
2022-10-18T11:06:02.234Z,11.38
2022-10-18T11:08:40.174Z,5.72
2022-10-18T11:11:28.164Z,8.07
2022-10-18T11:14:25.165Z,9.82
2022-10-18T11:17:41.076Z,3.22
2022-10-18T11:20:11.759Z,8.18
2022-10-18T11:23:24.878Z,11.13
2022-10-18T11:26:13.401Z,11.98
2022-10-18T11:29:10.974Z,8.07
2022-10-18T11:32:22.260Z,7.60
2022-10-18T11:35:09.270Z,6.38
2022-10-18T11:38:27.882Z,6.82
2022-10-18T11:41:23.732Z,9.27
2022-10-18T11:44:32.257Z,6.70
2022-10-18T11:47:26.180Z,11.48
2022-10-18T11:50:36.018Z,6.70
2022-10-18T11:53:24.946Z,5.70
2022-10-18T11:56:20.689Z,6.28
2022-10-18T11:59:40.602Z,6.45
2022-10-18T12:02:47.102Z,7.63
2022-10-18T12:05:24.956Z,9.18
2022-10-18T12:08:09.541Z,6.35
2022-10-18T12:10:53.220Z,6.83
2022-10-18T12:13:54.958Z,9.85
2022-10-18T12:16:49.346Z,5.15
2022-10-18T12:19:33.221Z,5.82
2022-10-18T12:22:23.005Z,6.10
2022-10-18T12:24:51.033Z,6.82
2022-10-18T12:27:19.543Z,10.95
2022-10-18T12:30:07.677Z,7.22
2022-10-18T12:32:37.253Z,5.60
2022-10-18T12:35:16.369Z,5.85
2022-10-18T12:38:07.970Z,9.55
2022-10-18T12:40:45.455Z,9.35
2022-10-18T12:43:26.255Z,6.78
2022-10-18T12:45:56.338Z,8.02
2022-10-18T12:48:51.254Z,5.75
2022-10-18T12:51:22.279Z,8.70
2022-10-18T12:54:10.970Z,8.75
2022-10-18T12:56:47.876Z,13.30
2022-10-18T12:59:15.482Z,4.45
2022-10-18T13:02:06.166Z,7.97
2022-10-18T13:04:38.437Z,11.07
2022-10-18T13:07:05.791Z,9.35
2022-10-18T13:09:43.004Z,8.90
2022-10-18T13:12:10.305Z,4.07
2022-10-18T13:15:26.946Z,6.20
2022-10-18T13:18:45.126Z,4.75
2022-10-18T13:21:58.409Z,5.90
2022-10-18T13:24:39.825Z,5.47
2022-10-18T13:27:42.625Z,5.65
2022-10-18T13:30:16.269Z,9.30
2022-10-18T13:33:06.751Z,5.47
2022-10-18T13:36:26.586Z,3.47
2022-10-18T13:39:06.174Z,9.40
2022-10-18T13:41:43.484Z,6.45
2022-10-18T13:44:43.702Z,10.65
2022-10-18T13:47:19.732Z,4.93
2022-10-18T13:49:49.799Z,4.43
2022-10-18T13:52:54.732Z,7.13
2022-10-18T13:55:55.807Z,7.03
2022-10-18T13:59:13.492Z,4.32
2022-10-18T14:01:56.051Z,8.75
2022-10-18T14:05:10.590Z,7.55
2022-10-18T14:07:44.825Z,5.10
2022-10-18T14:10:50.232Z,4.25
2022-10-18T14:13:33.649Z,7.18
2022-10-18T14:17:00.387Z,6.18
2022-10-18T14:19:39.733Z,3.53
2022-10-18T14:22:43.622Z,4.32
2022-10-18T14:25:38.926Z,5.97
2022-10-18T14:28:31.568Z,5.13
2022-10-18T14:31:07.410Z,5.35
2022-10-18T14:33:57.662Z,4.97
2022-10-18T14:36:37.181Z,5.55
2022-10-18T14:39:06.903Z,6.55
2022-10-18T14:41:48.985Z,5.85
2022-10-18T14:44:16.334Z,10.32
2022-10-18T14:46:50.620Z,8.57
2022-10-18T14:49:20.852Z,3.47
2022-10-18T14:51:53.511Z,6.20
2022-10-18T14:54:32.149Z,4.85
2022-10-18T14:57:05.398Z,4.07
2022-10-18T14:59:58.273Z,3.83
2022-10-18T15:02:31.853Z,7.18
2022-10-18T15:05:21.387Z,5.45
2022-10-18T15:07:51.235Z,5.25
2022-10-18T15:10:24.369Z,6.88
2022-10-18T15:13:10.273Z,4.43
2022-10-18T15:15:39.599Z,3.58
2022-10-18T15:18:08.504Z,5.72
2022-10-18T15:20:43.058Z,3.95
2022-10-18T15:23:32.664Z,4.32
2022-10-18T15:26:30.707Z,5.57
2022-10-18T15:29:01.519Z,3.67
2022-10-18T15:31:40.369Z,3.88
2022-10-18T15:34:26.509Z,3.38
2022-10-18T15:36:56.308Z,6.95
2022-10-18T15:39:32.162Z,4.18
2022-10-18T15:42:01.732Z,4.28
2022-10-18T15:44:53.842Z,4.65
2022-10-18T15:47:23.228Z,10.23
2022-10-18T15:49:58.138Z,4.10
2022-10-18T15:55:33.943Z,10.35
2022-10-18T15:58:09.994Z,6.20
2022-10-18T16:00:37.495Z,5.50
2022-10-18T16:03:04.884Z,7.43
2022-10-18T16:05:32.231Z,14.23
2022-10-18T16:08:02.448Z,6.10
2022-10-18T16:10:30.044Z,10.23
2022-10-18T16:12:57.544Z,14.23
2022-10-18T16:15:25.005Z,9.38
2022-10-18T16:17:52.906Z,7.47
2022-10-18T16:20:25.390Z,9.80
2022-10-18T16:22:52.849Z,16.55
2022-10-18T16:25:20.370Z,10.98
2022-10-18T16:27:47.837Z,8.98
2022-10-18T16:30:19.334Z,13.93
2022-10-18T16:32:49.169Z,13.93
2022-10-18T16:35:16.715Z,15.05
2022-10-18T16:37:44.139Z,14.25
2022-10-18T16:40:26.858Z,10.65
2022-10-18T16:42:54.618Z,8.95
2022-10-18T16:45:22.178Z,12.77
2022-10-18T16:47:49.476Z,14.07
2022-10-18T16:50:20.499Z,7.78
2022-10-18T16:52:47.961Z,11.63
2022-10-18T16:55:21.210Z,9.02
2022-10-18T16:57:50.497Z,10.27
2022-10-18T17:00:22.578Z,9.38
2022-10-18T17:02:50.945Z,10.98
2022-10-18T17:05:19.293Z,11.02
2022-10-18T17:07:48.360Z,18.77
2022-10-18T17:10:20.914Z,10.13
2022-10-18T17:12:48.415Z,8.63
2022-10-18T17:15:15.933Z,10.15
2022-10-18T17:17:43.420Z,10.25
2022-10-18T17:20:26.458Z,13.43
2022-10-18T17:22:54.492Z,9.13
2022-10-18T17:25:21.863Z,13.80
2022-10-18T17:27:49.482Z,10.52
2022-10-18T17:30:18.109Z,6.60
2022-10-18T17:32:45.598Z,10.65
2022-10-18T17:35:13.772Z,10.63
2022-10-18T17:37:44.077Z,6.35
2022-10-18T17:40:13.769Z,14.73
2022-10-18T17:42:41.710Z,8.95
2022-10-18T17:45:10.266Z,92.03
2022-10-18T17:47:37.825Z,91.30
2022-10-18T17:50:05.672Z,38.70
2022-10-18T17:52:33.257Z,33.70
2022-10-18T17:55:00.835Z,26.35
2022-10-18T17:57:28.530Z,16.60
2022-10-18T17:59:56.876Z,24.17
2022-10-18T18:02:27.079Z,17.42
2022-10-18T18:04:55.554Z,18.75
2022-10-18T18:07:23.343Z,14.38
2022-10-18T18:09:50.835Z,13.07
2022-10-18T18:12:18.445Z,17.20
2022-10-18T18:14:45.879Z,9.77
2022-10-18T18:17:13.999Z,18.42
2022-10-18T18:19:41.619Z,18.52
2022-10-18T18:22:09.202Z,14.95
2022-10-18T18:24:36.594Z,9.23
2022-10-18T18:27:03.947Z,13.68
2022-10-18T18:29:31.294Z,12.98
2022-10-18T18:31:59.998Z,16.27
2022-10-18T18:34:27.744Z,16.77
2022-10-18T18:36:55.608Z,18.95
2022-10-18T18:39:29.337Z,9.88
2022-10-18T18:41:57.083Z,14.93
2022-10-18T18:44:25.241Z,19.25
2022-10-18T18:46:52.813Z,17.80
2022-10-18T18:49:20.570Z,13.85
2022-10-18T18:51:48.270Z,11.68
2022-10-18T18:54:16.408Z,17.27
2022-10-18T18:56:43.901Z,16.67
2022-10-18T18:59:14.713Z,11.02
2022-10-18T19:01:43.472Z,16.15
2022-10-18T19:04:11.398Z,15.25
2022-10-18T19:06:44.744Z,13.15
2022-10-18T19:09:20.966Z,10.63
2022-10-18T19:11:53.881Z,14.45
2022-10-18T19:14:24.379Z,13.45
2022-10-18T19:16:59.326Z,17.77
2022-10-18T19:19:30.026Z,15.30
2022-10-18T19:22:01.179Z,13.80
2022-10-18T19:24:30.491Z,22.75
2022-10-18T19:27:05.399Z,10.90
2022-10-18T19:29:36.169Z,10.45
2022-10-18T19:32:09.124Z,9.65
2022-10-18T19:34:36.654Z,15.88
2022-10-18T19:37:04.721Z,13.60
2022-10-18T19:39:34.630Z,13.73
2022-10-18T19:42:15.663Z,15.18
2022-10-18T19:44:45.980Z,12.73
2022-10-18T19:47:14.907Z,13.23
2022-10-18T19:49:43.243Z,7.60
2022-10-18T19:52:12.463Z,19.38
2022-10-18T19:54:40.095Z,10.00
2022-10-18T19:57:07.921Z,10.82
2022-10-18T19:59:36.291Z,9.05
2022-10-18T20:02:04.958Z,15.30
2022-10-18T20:04:34.963Z,13.85
2022-10-18T20:07:03.091Z,6.60
2022-10-18T20:09:30.602Z,7.63
2022-10-18T20:11:58.047Z,12.25
2022-10-18T20:14:25.656Z,7.03
2022-10-18T20:16:53.171Z,11.10
2022-10-18T20:19:20.791Z,8.77
2022-10-18T20:21:48.251Z,8.20
2022-10-18T20:24:15.586Z,7.75
2022-10-18T20:26:43.921Z,14.75
2022-10-18T20:29:11.962Z,10.50
2022-10-18T20:31:39.581Z,14.52
2022-10-18T20:34:11.601Z,9.27
2022-10-18T20:36:40.017Z,4.68
2022-10-18T20:39:07.971Z,12.23
2022-10-18T20:41:42.952Z,4.72
2022-10-18T20:44:14.910Z,5.70
2022-10-18T20:46:43.289Z,15.05
2022-10-18T20:49:16.555Z,6.40
2022-10-18T20:51:44.241Z,8.25
2022-10-18T20:54:12.496Z,9.93
2022-10-18T20:56:40.059Z,9.07
2022-10-18T20:59:10.316Z,10.82
2022-10-18T21:01:39.604Z,9.30
2022-10-18T21:04:10.268Z,7.13
2022-10-18T21:06:43.510Z,11.57
2022-10-18T21:09:18.308Z,9.68
2022-10-18T21:11:49.629Z,8.52
2022-10-18T21:14:21.184Z,7.07
2022-10-18T21:16:50.216Z,7.80
2022-10-18T21:19:26.906Z,9.00
2022-10-18T21:21:57.558Z,12.88
2022-10-18T21:24:26.513Z,8.27
2022-10-18T21:26:54.948Z,10.80
2022-10-18T21:29:24.949Z,10.20
2022-10-18T21:31:59.503Z,14.10
2022-10-18T21:34:27.193Z,6.18
2022-10-18T21:36:54.752Z,6.05
2022-10-18T21:41:57.193Z,8.75
2022-10-18T21:44:24.867Z,6.32
2022-10-18T21:46:52.622Z,7.82
2022-10-18T21:49:20.552Z,5.90
2022-10-18T21:51:47.963Z,6.60
2022-10-18T21:54:16.929Z,5.07
2022-10-18T21:56:44.383Z,7.80
2022-10-18T21:59:13.829Z,8.23
2022-10-18T22:01:43.727Z,9.98
2022-10-18T22:04:24.473Z,7.05
2022-10-18T22:06:52.172Z,5.43
2022-10-18T22:09:21.498Z,5.97
2022-10-18T22:11:52.654Z,4.60
2022-10-18T22:14:20.975Z,5.00
2022-10-18T22:16:48.585Z,3.97
2022-10-18T22:19:16.205Z,4.60
2022-10-18T22:21:43.909Z,4.97
2022-10-18T22:24:11.426Z,7.95
2022-10-18T22:26:42.086Z,5.63
2022-10-18T22:29:19.019Z,4.47
2022-10-18T22:31:50.842Z,3.90
2022-10-18T22:34:28.568Z,7.63
2022-10-18T22:36:56.698Z,6.18
2022-10-18T22:39:24.818Z,5.40
2022-10-18T22:41:56.066Z,4.68
2022-10-18T22:44:23.892Z,3.10
2022-10-18T22:46:51.501Z,7.10
2022-10-18T22:49:19.196Z,4.88
2022-10-18T22:51:46.554Z,7.53
2022-10-18T22:54:14.142Z,3.00
2022-10-18T22:56:41.742Z,4.55
2022-10-18T22:59:09.274Z,6.20
2022-10-18T23:01:36.748Z,9.15
2022-10-18T23:04:04.760Z,7.03
2022-10-18T23:06:35.427Z,9.93
2022-10-18T23:09:07.546Z,11.18
2022-10-18T23:11:36.383Z,11.48
2022-10-18T23:14:06.052Z,16.40
2022-10-18T23:16:33.627Z,17.42
2022-10-18T23:19:01.342Z,15.30
2022-10-18T23:21:29.684Z,17.58
2022-10-18T23:23:57.763Z,17.33
2022-10-18T23:26:27.872Z,16.15
2022-10-18T23:28:56.118Z,21.88
2022-10-18T23:31:29.095Z,21.17
2022-10-18T23:33:59.692Z,21.63
2022-10-18T23:36:27.824Z,26.15
2022-10-18T23:38:55.703Z,22.52
2022-10-18T23:41:23.885Z,23.10
2022-10-18T23:43:51.920Z,24.20
2022-10-18T23:46:19.917Z,25.38
2022-10-18T23:48:48.273Z,23.63
2022-10-18T23:51:16.309Z,25.13
2022-10-18T23:53:44.572Z,21.98
2022-10-18T23:56:15.185Z,19.73
2022-10-18T23:58:44.441Z,19.83
